KGS weather

Kos Airport
Kos Island, Dodecanese, Greece

Public forecast

Using degrees Celsius for public forecast. Weather courtesy of forecast.io.

METAR (pilot weather report)

Retrieved 2018/12/11 16:50 UTC (22 minutes ago):

LGKO 111650Z 01011KT 9999 FEW018TCU FEW020CB SCT025 09/06 Q1011

TAF (pilot weather forecast)

Retrieved 2018/12/11 12:16 UTC (5 hours ago):

TAF LGKO 111100Z 1112/1212 VRB05KT 9999 SCT025 PROB40 TEMPO 1112/1206 5000 RA SCT015 BKN025 PROB30 TEMPO 1112/1206 3000 TSRA SCT015 FEW018CB BKN025 BECMG 1122/1124 33015KT